createdAt,value
2019-03-24T00:01:41.705Z,20.20
2019-03-24T00:04:10.324Z,16.17
2019-03-24T00:06:39.848Z,16.57
2019-03-24T00:09:09.234Z,16.70
2019-03-24T00:11:38.472Z,17.42
2019-03-24T00:14:07.663Z,17.03
2019-03-24T00:16:36.889Z,17.57
2019-03-24T00:19:06.083Z,15.60
2019-03-24T00:21:35.380Z,16.17
2019-03-24T00:24:04.588Z,15.03
2019-03-24T00:26:33.159Z,18.80
2019-03-24T00:29:02.359Z,18.82
2019-03-24T00:31:31.577Z,19.40
2019-03-24T00:34:00.950Z,17.65
2019-03-24T00:36:30.174Z,18.95
2019-03-24T00:38:59.462Z,17.80
2019-03-24T00:41:28.648Z,16.87
2019-03-24T00:43:57.848Z,18.10
2019-03-24T00:46:27.056Z,16.23
2019-03-24T00:48:55.815Z,16.83
2019-03-24T00:51:25.244Z,18.42
2019-03-24T00:53:54.774Z,18.10
2019-03-24T00:56:24.400Z,19.40
2019-03-24T00:58:53.673Z,20.60
2019-03-24T01:01:22.934Z,20.65
2019-03-24T01:03:53.009Z,19.30
2019-03-24T01:06:21.653Z,18.65
2019-03-24T01:08:51.153Z,20.15
2019-03-24T01:11:20.366Z,20.88
2019-03-24T01:13:49.568Z,22.15
2019-03-24T01:16:18.785Z,21.02
2019-03-24T01:18:48.034Z,22.10
2019-03-24T01:21:17.224Z,19.90
2019-03-24T01:23:46.737Z,20.43
2019-03-24T01:26:15.944Z,19.73
2019-03-24T01:28:44.555Z,18.52
2019-03-24T01:31:13.871Z,20.20
2019-03-24T01:33:43.172Z,22.35
2019-03-24T01:36:12.366Z,20.15
2019-03-24T01:38:41.662Z,18.20
2019-03-24T01:41:11.041Z,18.85
2019-03-24T01:43:40.774Z,17.98
2019-03-24T01:46:10.009Z,21.60
2019-03-24T01:48:39.276Z,17.17
2019-03-24T01:51:08.317Z,21.35
2019-03-24T01:53:37.554Z,19.20
2019-03-24T01:56:06.863Z,18.92
2019-03-24T01:58:36.136Z,19.12
2019-03-24T02:01:05.868Z,19.30
2019-03-24T02:03:35.473Z,18.20
2019-03-24T02:06:04.765Z,17.82
2019-03-24T02:08:33.973Z,18.98
2019-03-24T02:11:03.188Z,19.02
2019-03-24T02:13:31.837Z,18.75
2019-03-24T02:16:09.017Z,20.08
2019-03-24T02:18:32.811Z,19.17
2019-03-24T02:21:02.129Z,19.55
2019-03-24T02:23:31.329Z,20.55
2019-03-24T02:26:00.505Z,19.70
2019-03-24T02:28:29.813Z,21.40
2019-03-24T02:30:59.129Z,20.12
2019-03-24T02:33:28.327Z,16.62
2019-03-24T02:35:56.902Z,19.35
2019-03-24T02:38:26.157Z,18.05
2019-03-24T02:40:55.369Z,19.80
2019-03-24T02:43:24.676Z,19.12
2019-03-24T02:45:53.960Z,19.65
2019-03-24T02:48:24.715Z,18.90
2019-03-24T02:50:53.994Z,19.50
2019-03-24T02:53:23.195Z,19.50
2019-03-24T02:55:52.165Z,15.88
2019-03-24T02:58:21.372Z,18.70
2019-03-24T03:00:50.587Z,19.90
2019-03-24T03:03:20.238Z,17.37
2019-03-24T03:05:49.536Z,16.55
2019-03-24T03:08:18.744Z,17.23
2019-03-24T03:10:48.020Z,17.87
2019-03-24T03:13:17.853Z,19.42
2019-03-24T03:15:47.439Z,18.05
2019-03-24T03:18:16.007Z,17.57
2019-03-24T03:20:45.308Z,18.55
2019-03-24T03:23:14.733Z,18.60
2019-03-24T03:25:43.935Z,18.55
2019-03-24T03:28:13.454Z,19.42
2019-03-24T03:30:42.701Z,18.80
2019-03-24T03:33:11.932Z,18.52
2019-03-24T03:35:41.227Z,19.23
2019-03-24T03:38:10.538Z,15.08
2019-03-24T03:40:40.419Z,19.15
2019-03-24T03:43:09.599Z,17.70
2019-03-24T03:45:39.487Z,18.30
2019-03-24T03:48:08.779Z,17.50
2019-03-24T03:50:38.025Z,17.30
2019-03-24T03:53:07.327Z,20.10
2019-03-24T03:55:36.622Z,19.90
2019-03-24T03:58:05.837Z,18.80
2019-03-24T04:00:35.949Z,16.30
2019-03-24T04:03:07.460Z,18.95
2019-03-24T04:05:36.662Z,19.52
2019-03-24T04:08:06.023Z,19.67
2019-03-24T04:10:35.318Z,16.90
2019-03-24T04:13:04.623Z,17.23
2019-03-24T04:15:33.942Z,19.07
2019-03-24T04:18:03.221Z,18.45
2019-03-24T04:20:32.493Z,16.97
2019-03-24T04:23:01.040Z,16.00
2019-03-24T04:25:30.294Z,16.87
2019-03-24T04:27:59.921Z,18.87
2019-03-24T04:30:29.175Z,17.55
2019-03-24T04:32:58.412Z,18.35
2019-03-24T04:35:27.695Z,19.17
2019-03-24T04:37:56.984Z,19.52
2019-03-24T04:40:26.168Z,17.90
2019-03-24T04:42:55.781Z,18.45
2019-03-24T04:45:24.363Z,19.30
2019-03-24T04:47:53.585Z,18.00
2019-03-24T04:50:22.864Z,19.90
2019-03-24T04:52:52.178Z,20.45
2019-03-24T04:55:21.601Z,20.50
2019-03-24T04:57:50.891Z,20.70
2019-03-24T05:00:27.009Z,21.55
2019-03-24T05:02:56.298Z,19.25
2019-03-24T05:05:25.576Z,19.27
2019-03-24T05:07:55.161Z,17.45
2019-03-24T05:10:26.903Z,18.57
2019-03-24T05:12:56.555Z,17.95
2019-03-24T05:15:25.948Z,18.57
2019-03-24T05:17:55.199Z,19.55
2019-03-24T05:20:24.640Z,18.02
2019-03-24T05:22:53.901Z,17.85
2019-03-24T05:25:23.804Z,20.27
2019-03-24T05:27:53.365Z,20.35
2019-03-24T05:30:22.912Z,16.32
2019-03-24T05:32:51.792Z,18.60
2019-03-24T05:35:21.005Z,18.12
2019-03-24T05:37:50.189Z,19.32
2019-03-24T05:40:19.413Z,17.35
2019-03-24T05:42:48.611Z,19.45
2019-03-24T05:45:17.853Z,18.70
2019-03-24T05:47:47.095Z,17.90
2019-03-24T05:50:16.553Z,17.45
2019-03-24T05:52:45.142Z,14.73
2019-03-24T05:55:14.422Z,18.50
2019-03-24T05:57:43.693Z,18.45
2019-03-24T06:00:12.938Z,17.90
2019-03-24T06:02:42.436Z,18.87
2019-03-24T06:05:11.745Z,18.90
2019-03-24T06:07:41.010Z,19.73
2019-03-24T06:10:10.389Z,19.77
2019-03-24T06:12:39.688Z,18.42
2019-03-24T06:15:08.539Z,16.62
2019-03-24T06:17:47.396Z,18.95
2019-03-24T06:20:08.864Z,19.87
2019-03-24T06:22:38.144Z,20.85
2019-03-24T06:25:07.621Z,17.60
2019-03-24T06:27:37.370Z,20.45
2019-03-24T06:30:06.918Z,19.73
2019-03-24T06:32:36.201Z,19.55
2019-03-24T06:35:05.804Z,19.77
2019-03-24T06:37:34.464Z,17.40
2019-03-24T06:40:03.864Z,19.12
2019-03-24T06:42:33.597Z,20.00
2019-03-24T06:45:02.908Z,18.15
2019-03-24T06:47:32.294Z,18.40
2019-03-24T06:50:01.586Z,18.37
2019-03-24T06:52:30.839Z,17.87
2019-03-24T06:55:00.335Z,16.33
2019-03-24T06:57:29.616Z,17.27
2019-03-24T06:59:58.216Z,17.00
2019-03-24T07:02:27.477Z,17.47
2019-03-24T07:04:57.031Z,17.77
2019-03-24T07:07:26.216Z,18.80
2019-03-24T07:09:55.486Z,17.70
2019-03-24T07:12:25.068Z,18.30
2019-03-24T07:14:54.329Z,18.73
2019-03-24T07:17:23.802Z,17.53
2019-03-24T07:19:53.163Z,16.30
2019-03-24T07:22:22.520Z,17.67
2019-03-24T07:24:51.898Z,16.50
2019-03-24T07:27:21.133Z,17.40
2019-03-24T07:29:50.326Z,17.60
2019-03-24T07:32:19.831Z,18.20
2019-03-24T07:34:49.057Z,17.73
2019-03-24T07:37:18.252Z,16.67
2019-03-24T07:39:47.472Z,16.63
2019-03-24T07:42:16.774Z,13.93
2019-03-24T07:44:45.338Z,15.93
2019-03-24T07:47:14.732Z,16.00
2019-03-24T07:49:43.976Z,15.77
2019-03-24T07:52:13.278Z,13.30
2019-03-24T07:54:42.530Z,14.40
2019-03-24T07:57:11.782Z,14.63
2019-03-24T07:59:41.050Z,14.53
2019-03-24T08:02:10.335Z,14.10
2019-03-24T08:04:39.667Z,13.47
2019-03-24T08:07:08.221Z,12.57
2019-03-24T08:09:37.848Z,14.27
2019-03-24T08:12:07.143Z,13.43
2019-03-24T08:14:36.927Z,13.10
2019-03-24T08:17:06.127Z,13.47
2019-03-24T08:19:35.669Z,15.00
2019-03-24T08:22:04.979Z,14.73
2019-03-24T08:24:34.461Z,17.07
2019-03-24T08:27:03.038Z,13.27
2019-03-24T08:29:32.241Z,15.40
2019-03-24T08:32:01.840Z,15.43
2019-03-24T08:34:31.478Z,16.53
2019-03-24T08:37:00.762Z,15.70
2019-03-24T08:39:30.034Z,17.30
2019-03-24T08:41:59.256Z,17.63
2019-03-24T08:44:28.533Z,18.40
2019-03-24T08:46:57.733Z,16.20
2019-03-24T08:49:26.330Z,16.00
2019-03-24T08:51:55.657Z,15.97
2019-03-24T08:54:24.917Z,17.50
2019-03-24T08:56:54.477Z,18.37
2019-03-24T08:59:23.747Z,17.23
2019-03-24T09:01:53.047Z,17.23
2019-03-24T09:04:22.308Z,18.37
2019-03-24T09:06:52.413Z,17.70
2019-03-24T09:09:21.914Z,16.63
2019-03-24T09:11:50.521Z,15.40
2019-03-24T09:14:19.750Z,16.50
2019-03-24T09:16:49.378Z,17.40
2019-03-24T09:19:18.914Z,18.60
2019-03-24T09:21:48.121Z,16.83
2019-03-24T09:24:17.659Z,16.50
2019-03-24T09:26:46.962Z,16.97
2019-03-24T09:29:16.774Z,19.53
2019-03-24T09:31:45.970Z,17.80
2019-03-24T09:34:14.565Z,18.00
2019-03-24T09:36:43.841Z,19.37
2019-03-24T09:39:13.133Z,18.60
2019-03-24T09:41:42.637Z,19.10
2019-03-24T09:44:11.850Z,17.90
2019-03-24T09:46:41.156Z,17.53
2019-03-24T09:49:10.451Z,19.00
2019-03-24T09:51:39.743Z,19.07
2019-03-24T09:54:08.957Z,17.00
2019-03-24T09:56:37.538Z,18.63
2019-03-24T09:59:06.738Z,18.27
2019-03-24T10:01:36.045Z,19.20
2019-03-24T10:04:05.465Z,19.13
2019-03-24T10:06:34.729Z,19.70
2019-03-24T10:09:05.105Z,18.97
2019-03-24T10:11:34.293Z,20.50
2019-03-24T10:14:03.875Z,18.93
2019-03-24T10:16:33.304Z,17.83
2019-03-24T10:19:02.051Z,20.60
2019-03-24T10:21:31.348Z,17.30
2019-03-24T10:24:00.879Z,19.57
2019-03-24T10:26:30.286Z,19.37
2019-03-24T10:29:00.203Z,19.40
2019-03-24T10:31:29.609Z,19.00
2019-03-24T10:33:59.058Z,19.23
2019-03-24T10:36:28.402Z,19.33
2019-03-24T10:38:57.514Z,16.70
2019-03-24T10:41:26.878Z,19.47
2019-03-24T10:43:56.393Z,19.60
2019-03-24T10:46:25.797Z,19.10
2019-03-24T10:48:55.187Z,21.17
2019-03-24T10:51:24.568Z,21.47
2019-03-24T10:53:54.105Z,20.50
2019-03-24T10:56:23.987Z,19.63
2019-03-24T10:58:53.292Z,20.17
2019-03-24T11:01:22.031Z,20.43
2019-03-24T11:03:51.655Z,21.73
2019-03-24T11:06:21.034Z,20.90
2019-03-24T11:08:50.497Z,22.00
2019-03-24T11:11:20.202Z,21.13
2019-03-24T11:13:49.556Z,21.60
2019-03-24T11:16:18.978Z,20.17
2019-03-24T11:18:48.373Z,27.00
2019-03-24T11:21:17.694Z,23.40
2019-03-24T11:23:46.383Z,24.77
2019-03-24T11:26:15.690Z,24.17
2019-03-24T11:28:45.077Z,24.97
2019-03-24T11:31:14.555Z,22.30
2019-03-24T11:33:44.067Z,23.77
2019-03-24T11:36:13.469Z,24.07
2019-03-24T11:38:42.907Z,26.90
2019-03-24T11:41:12.336Z,25.80
2019-03-24T11:43:41.845Z,23.20
2019-03-24T11:46:10.511Z,26.07
2019-03-24T11:48:39.845Z,29.23
2019-03-24T11:51:09.455Z,24.87
2019-03-24T11:53:39.045Z,26.37
2019-03-24T11:56:08.525Z,27.67
2019-03-24T11:58:37.964Z,26.13
2019-03-24T12:01:07.547Z,28.23
2019-03-24T12:03:37.124Z,27.60
2019-03-24T12:06:14.581Z,26.00
2019-03-24T12:08:38.906Z,26.93
2019-03-24T12:11:08.389Z,26.47
2019-03-24T12:13:37.828Z,28.73
2019-03-24T12:16:08.218Z,28.93
2019-03-24T12:18:37.580Z,30.90
2019-03-24T12:21:07.090Z,31.13
2019-03-24T12:23:36.677Z,29.13
2019-03-24T12:26:06.216Z,27.37
2019-03-24T12:28:34.982Z,29.23
2019-03-24T12:31:04.565Z,28.73
2019-03-24T12:33:34.034Z,30.63
2019-03-24T12:36:03.458Z,31.87
2019-03-24T12:38:32.783Z,29.90
2019-03-24T12:41:02.755Z,30.20
2019-03-24T12:43:32.455Z,31.27
2019-03-24T12:46:02.983Z,31.60
2019-03-24T12:48:33.487Z,27.97
2019-03-24T12:51:02.508Z,30.10
2019-03-24T12:53:31.950Z,30.10
2019-03-24T12:56:01.365Z,27.30
2019-03-24T12:58:30.771Z,30.07
2019-03-24T13:01:00.316Z,29.23
2019-03-24T13:03:29.805Z,28.67
2019-03-24T13:05:59.360Z,28.43
2019-03-24T13:08:29.125Z,31.90
2019-03-24T13:10:57.873Z,28.10
2019-03-24T13:13:27.352Z,29.90
2019-03-24T13:15:56.789Z,30.50
2019-03-24T13:18:26.354Z,29.60
2019-03-24T13:20:55.763Z,29.33
2019-03-24T13:23:25.207Z,31.33
2019-03-24T13:25:55.144Z,30.00
2019-03-24T13:28:24.708Z,29.10
2019-03-24T13:30:54.088Z,26.87
2019-03-24T13:33:22.800Z,28.33
2019-03-24T13:36:03.917Z,28.83
2019-03-24T13:38:33.815Z,30.73
2019-03-24T13:41:03.670Z,32.03
2019-03-24T13:43:33.259Z,31.40
2019-03-24T13:46:02.542Z,31.20
2019-03-24T13:48:31.803Z,32.33
2019-03-24T13:51:01.066Z,32.90
2019-03-24T13:53:30.305Z,31.67
2019-03-24T13:55:58.906Z,31.30
2019-03-24T13:58:28.196Z,30.50
2019-03-24T14:00:57.549Z,30.67
2019-03-24T14:03:26.874Z,32.87
2019-03-24T14:05:56.110Z,30.37
2019-03-24T14:08:28.613Z,30.40
2019-03-24T14:10:57.868Z,30.57
2019-03-24T14:13:27.083Z,30.63
2019-03-24T14:15:56.389Z,29.50
2019-03-24T14:18:24.967Z,28.53
2019-03-24T14:20:54.193Z,29.20
2019-03-24T14:23:23.663Z,29.77
2019-03-24T14:25:52.859Z,30.40
2019-03-24T14:28:22.401Z,31.90
2019-03-24T14:30:51.606Z,31.13
2019-03-24T14:33:20.836Z,31.20
2019-03-24T14:35:50.012Z,31.90
2019-03-24T14:38:19.601Z,30.97
2019-03-24T14:40:48.246Z,31.37
2019-03-24T14:43:17.706Z,31.03
2019-03-24T14:45:46.974Z,30.50
2019-03-24T14:48:16.298Z,31.43
2019-03-24T14:50:54.058Z,31.00
2019-03-24T14:53:17.781Z,31.47
2019-03-24T14:55:47.137Z,33.97
2019-03-24T14:58:16.359Z,31.77
2019-03-24T15:00:46.301Z,30.03
2019-03-24T15:03:14.961Z,31.60
2019-03-24T15:05:44.233Z,32.67
2019-03-24T15:08:13.531Z,34.00
2019-03-24T15:10:42.707Z,34.33
2019-03-24T15:13:11.903Z,32.60
2019-03-24T15:15:41.230Z,32.47
2019-03-24T15:18:10.529Z,33.90
2019-03-24T15:20:39.872Z,33.60
2019-03-24T15:23:09.106Z,31.03
2019-03-24T15:25:37.700Z,32.20
2019-03-24T15:28:06.926Z,34.80
2019-03-24T15:30:36.635Z,34.03
2019-03-24T15:33:05.905Z,33.93
2019-03-24T15:35:35.209Z,34.10
2019-03-24T15:38:08.608Z,33.93
2019-03-24T15:40:35.462Z,35.73
2019-03-24T15:43:04.746Z,32.77
2019-03-24T15:45:33.969Z,29.30
2019-03-24T15:48:02.647Z,30.23
2019-03-24T15:50:31.958Z,22.93
2019-03-24T15:53:01.542Z,23.90
2019-03-24T15:55:31.148Z,22.30
2019-03-24T15:58:00.358Z,20.53
2019-03-24T16:00:41.293Z,18.77
2019-03-24T16:03:10.599Z,17.40
2019-03-24T16:05:40.358Z,17.83
2019-03-24T16:08:09.957Z,17.80
2019-03-24T16:10:38.528Z,17.87
2019-03-24T16:13:07.733Z,17.20
2019-03-24T16:15:36.922Z,17.43
2019-03-24T16:18:06.237Z,16.90
2019-03-24T16:20:35.546Z,19.40
2019-03-24T16:23:04.834Z,17.97
2019-03-24T16:25:34.484Z,18.20
2019-03-24T16:28:03.766Z,16.90
2019-03-24T16:30:33.009Z,17.33
2019-03-24T16:33:01.614Z,19.60
2019-03-24T16:35:30.902Z,18.90
2019-03-24T16:38:00.213Z,18.43
2019-03-24T16:40:29.506Z,18.67
2019-03-24T16:42:58.793Z,17.23
2019-03-24T16:45:28.374Z,18.47
2019-03-24T16:47:57.593Z,19.53
2019-03-24T16:50:26.853Z,19.67
2019-03-24T16:52:55.840Z,17.50
2019-03-24T16:55:25.074Z,17.53
2019-03-24T16:57:54.265Z,19.37
2019-03-24T17:00:23.735Z,18.80
2019-03-24T17:02:52.937Z,17.53
2019-03-24T17:05:22.190Z,18.80
2019-03-24T17:07:51.525Z,19.73
2019-03-24T17:10:20.738Z,17.17
2019-03-24T17:12:50.273Z,16.77
2019-03-24T17:15:18.876Z,16.60
2019-03-24T17:17:48.168Z,19.33
2019-03-24T17:20:17.446Z,19.10
2019-03-24T17:22:46.686Z,20.80
2019-03-24T17:25:15.993Z,20.60
2019-03-24T17:27:45.265Z,18.80
2019-03-24T17:30:14.499Z,16.17
2019-03-24T17:32:43.789Z,18.70
2019-03-24T17:35:13.068Z,15.50
2019-03-24T17:37:42.840Z,17.33
2019-03-24T17:40:12.577Z,17.43
2019-03-24T17:42:42.051Z,16.83
2019-03-24T17:45:11.646Z,16.13
2019-03-24T17:47:40.929Z,16.13
2019-03-24T17:50:12.057Z,16.23
2019-03-24T17:52:41.248Z,15.17
2019-03-24T17:55:10.871Z,13.80
2019-03-24T17:57:40.545Z,16.00
2019-03-24T18:00:10.848Z,15.80
2019-03-24T18:02:40.077Z,16.03
2019-03-24T18:05:09.446Z,16.87
2019-03-24T18:07:38.691Z,15.83
2019-03-24T18:10:09.629Z,15.37
2019-03-24T18:12:38.981Z,16.10
2019-03-24T18:15:08.837Z,15.90
2019-03-24T18:17:38.650Z,18.27
2019-03-24T18:20:07.433Z,15.93
2019-03-24T18:22:36.733Z,17.03
2019-03-24T18:25:06.994Z,18.43
2019-03-24T18:27:36.175Z,19.80
2019-03-24T18:30:07.767Z,21.33
2019-03-24T18:32:37.076Z,21.03
2019-03-24T18:35:07.355Z,19.10
2019-03-24T18:37:37.049Z,19.30
2019-03-24T18:40:06.301Z,15.87
2019-03-24T18:42:35.800Z,16.13
2019-03-24T18:45:05.812Z,18.60
2019-03-24T18:47:39.305Z,21.90
2019-03-24T18:50:08.493Z,19.40
2019-03-24T18:52:37.749Z,22.80
2019-03-24T18:55:07.099Z,22.47
2019-03-24T18:57:36.375Z,25.90
2019-03-24T19:00:06.282Z,26.67
2019-03-24T19:02:34.921Z,27.10
2019-03-24T19:05:04.241Z,27.40
2019-03-24T19:07:33.489Z,29.90
2019-03-24T19:10:02.683Z,30.93
2019-03-24T19:12:36.216Z,33.80
2019-03-24T19:15:06.773Z,35.97
2019-03-24T19:17:36.009Z,36.67
2019-03-24T19:20:05.453Z,38.23
2019-03-24T19:22:34.656Z,39.03
2019-03-24T19:25:03.241Z,36.40
2019-03-24T19:27:32.489Z,41.00
2019-03-24T19:30:01.977Z,39.17
2019-03-24T19:32:31.453Z,44.00
2019-03-24T19:35:00.708Z,42.47
2019-03-24T19:37:30.219Z,46.00
2019-03-24T19:39:59.689Z,44.40
2019-03-24T19:42:29.326Z,45.40
2019-03-24T19:44:58.893Z,42.77
2019-03-24T19:47:27.647Z,46.20
2019-03-24T19:49:57.438Z,49.97
2019-03-24T19:52:27.330Z,50.80
2019-03-24T19:54:57.123Z,49.53
2019-03-24T19:57:28.607Z,49.10
2019-03-24T19:59:59.067Z,51.03
2019-03-24T20:02:28.449Z,50.80
2019-03-24T20:04:57.921Z,53.60
2019-03-24T20:07:27.735Z,51.00
2019-03-24T20:09:56.859Z,52.03
2019-03-24T20:12:26.386Z,54.20
2019-03-24T20:14:55.825Z,55.10
2019-03-24T20:17:25.354Z,54.70
2019-03-24T20:19:55.871Z,55.37
2019-03-24T20:22:25.338Z,54.13
2019-03-24T20:24:54.706Z,55.43
2019-03-24T20:27:25.929Z,55.10
2019-03-24T20:29:55.388Z,50.37
2019-03-24T20:32:24.190Z,53.80
2019-03-24T20:34:53.711Z,53.27
2019-03-24T20:37:23.267Z,53.60
2019-03-24T20:39:52.767Z,51.00
2019-03-24T20:42:22.253Z,55.97
2019-03-24T20:44:51.736Z,53.97
2019-03-24T20:47:22.488Z,51.00
2019-03-24T20:49:51.922Z,50.00
2019-03-24T20:52:21.258Z,49.50
2019-03-24T20:54:49.914Z,53.37
2019-03-24T20:57:20.300Z,52.53
2019-03-24T20:59:51.941Z,54.07
2019-03-24T21:02:21.277Z,52.57
2019-03-24T21:04:50.825Z,52.50
2019-03-24T21:07:20.245Z,51.40
2019-03-24T21:09:49.556Z,53.87
2019-03-24T21:12:18.863Z,52.27
2019-03-24T21:14:48.062Z,46.70
2019-03-24T21:17:16.710Z,51.67
2019-03-24T21:19:47.285Z,51.87
2019-03-24T21:22:16.550Z,54.40
2019-03-24T21:24:46.081Z,54.20
2019-03-24T21:27:15.448Z,55.00
2019-03-24T21:29:44.652Z,56.03
2019-03-24T21:32:13.885Z,55.97
2019-03-24T21:34:43.089Z,49.80
2019-03-24T21:37:12.298Z,47.87
2019-03-24T21:39:41.025Z,51.80
2019-03-24T21:42:10.634Z,54.20
2019-03-24T21:44:39.865Z,53.23
2019-03-24T21:47:09.152Z,52.80
2019-03-24T21:49:38.537Z,51.30
2019-03-24T21:52:07.869Z,54.90
2019-03-24T21:54:37.173Z,53.90
2019-03-24T21:57:06.367Z,55.30
2019-03-24T21:59:35.030Z,49.17
2019-03-24T22:02:04.420Z,51.03
2019-03-24T22:04:33.750Z,58.37
2019-03-24T22:07:03.043Z,53.40
2019-03-24T22:09:32.337Z,55.30
2019-03-24T22:12:01.907Z,54.60
2019-03-24T22:14:31.119Z,56.33
2019-03-24T22:17:00.312Z,55.43
2019-03-24T22:19:29.521Z,51.60
2019-03-24T22:21:58.152Z,52.20
2019-03-24T22:24:27.756Z,53.47
2019-03-24T22:26:57.008Z,57.50
2019-03-24T22:29:26.337Z,57.07
2019-03-24T22:31:55.611Z,55.77
2019-03-24T22:34:24.838Z,54.43
2019-03-24T22:36:54.055Z,57.63
2019-03-24T22:39:23.337Z,55.57
2019-03-24T22:41:52.925Z,50.30
2019-03-24T22:44:21.527Z,55.50
2019-03-24T22:46:50.818Z,55.37
2019-03-24T22:49:20.045Z,58.50
2019-03-24T22:51:49.272Z,59.97
2019-03-24T22:54:18.559Z,55.90
2019-03-24T22:56:47.911Z,55.30
2019-03-24T22:59:17.242Z,53.97
2019-03-24T23:01:46.447Z,54.83
2019-03-24T23:04:15.730Z,48.70
2019-03-24T23:06:44.383Z,58.70
2019-03-24T23:09:13.616Z,56.97
2019-03-24T23:11:42.909Z,54.50
2019-03-24T23:14:12.248Z,57.70
2019-03-24T23:16:41.441Z,56.30
2019-03-24T23:19:10.700Z,58.63
2019-03-24T23:21:39.897Z,56.50
2019-03-24T23:24:15.286Z,54.63
2019-03-24T23:26:40.128Z,49.87
2019-03-24T23:29:08.722Z,56.20
2019-03-24T23:31:37.928Z,57.87
2019-03-24T23:34:07.680Z,58.10
2019-03-24T23:36:36.926Z,59.77
2019-03-24T23:39:07.005Z,56.60
2019-03-24T23:41:36.554Z,58.43
2019-03-24T23:44:05.869Z,55.63
2019-03-24T23:46:35.157Z,52.80
2019-03-24T23:49:04.506Z,47.87
2019-03-24T23:51:33.180Z,53.10
2019-03-24T23:54:02.427Z,53.10
2019-03-24T23:56:31.741Z,56.20
2019-03-24T23:59:00.968Z,56.10
